Time;durP1;ratioP1;P1;durP2;ratioP2;P2;SDS_P1;SDS_P2;PMS_P1;PMS_P2;Temp;Humidity;BMP_temperature;BMP_pressure;BME280_temperature;BME280_humidity;BME280_pressure;Samples;Min_cycle;Max_cycle;Signal;HPM_P1;HPM_P2
2023/09/13 00:01:33;;;;;;;7.07;3.93;;;;;;;19.83;88.20;151018.38;5028817;28;20236;-55
2023/09/13 00:04:00;;;;;;;5.70;3.90;;;;;;;19.73;88.58;150995.81;5026114;28;20231;-55
2023/09/13 00:06:28;;;;;;;7.03;4.20;;;;;;;19.64;89.82;150973.28;5030881;28;20224;-55
2023/09/13 00:08:54;;;;;;;5.20;4.00;;;;;;;19.58;89.73;150959.53;5026373;28;20218;-54
2023/09/13 00:11:21;;;;;;;5.63;3.93;;;;;;;19.49;89.91;150936.97;5029092;28;20288;-54
2023/09/13 00:13:48;;;;;;;7.63;4.03;;;;;;;19.40;90.62;150914.44;5029507;28;20226;-55
2023/09/13 00:16:14;;;;;;;9.23;4.30;;;;;;;19.31;92.64;150893.16;5027668;28;20592;-53
2023/09/13 00:18:41;;;;;;;5.60;3.83;;;;;;;19.20;92.91;150866.84;5029586;28;20687;-55
2023/09/13 00:21:10;;;;;;;5.27;4.07;;;;;;;19.12;92.62;150846.81;5025627;28;20232;-56
2023/09/13 00:23:39;;;;;;;7.37;3.87;;;;;;;19.02;93.02;150824.31;5028217;28;20841;-57
2023/09/13 00:26:06;;;;;;;7.33;3.67;;;;;;;18.94;94.19;150804.25;5025539;28;20231;-54
2023/09/13 00:28:32;;;;;;;5.00;4.33;;;;;;;18.89;94.63;150792.97;5028403;28;20370;-54
2023/09/13 00:30:59;;;;;;;5.40;4.13;;;;;;;18.82;94.95;150775.44;5023213;28;20243;-56
2023/09/13 00:33:26;;;;;;;4.30;3.37;;;;;;;18.78;95.56;150765.41;5027101;28;20296;-57
2023/09/13 00:35:55;;;;;;;6.10;3.87;;;;;;;18.72;96.28;150751.66;5025993;28;20224;-57
2023/09/13 00:38:22;;;;;;;6.47;4.10;;;;;;;18.70;96.96;150745.38;5042783;28;20732;-57
2023/09/13 00:40:51;;;;;;;5.80;3.77;;;;;;;18.68;97.00;150741.66;5037256;28;20745;-57
2023/09/13 00:43:18;;;;;;;5.03;4.03;;;;;;;18.59;97.58;150719.13;5039794;28;20241;-56
2023/09/13 00:45:48;;;;;;;5.47;3.67;;;;;;;18.63;97.96;150729.13;5046079;28;20230;-57
2023/09/13 00:48:17;;;;;;;6.53;4.07;;;;;;;18.58;97.81;150716.63;5061049;28;20245;-57
2023/09/13 00:50:46;;;;;;;5.87;4.07;;;;;;;18.55;98.26;150709.09;5040989;28;20758;-56
2023/09/13 00:53:14;;;;;;;7.20;4.23;;;;;;;18.60;98.27;150721.63;5032175;28;22456;-57
2023/09/13 00:55:41;;;;;;;4.20;3.50;;;;;;;18.61;97.87;150724.13;5027008;28;20222;-57
2023/09/13 00:58:09;;;;;;;5.93;4.00;;;;;;;18.57;97.86;150714.13;5024028;28;20602;-56
2023/09/13 01:00:37;;;;;;;7.13;4.40;;;;;;;18.59;98.16;150719.13;5025365;28;20226;-56
2023/09/13 01:03:07;;;;;;;6.77;4.00;;;;;;;18.59;98.20;150719.13;5023096;28;20283;-57
2023/09/13 01:05:35;;;;;;;9.10;3.53;;;;;;;18.61;97.85;150722.84;5041933;28;20292;-57
2023/09/13 01:08:03;;;;;;;5.53;3.30;;;;;;;18.66;97.40;150735.38;5015769;28;20705;-57
2023/09/13 01:10:30;;;;;;;8.37;4.03;;;;;;;18.72;97.77;150751.66;5026750;28;20227;-56
2023/09/13 01:12:57;;;;;;;5.47;3.87;;;;;;;18.79;97.10;150766.69;5022119;28;20613;-57
2023/09/13 01:15:28;;;;;;;6.63;4.00;;;;;;;19.20;93.63;150865.63;5025203;28;20243;-56
2023/09/13 01:18:02;;;;;;;4.33;3.70;;;;;;;19.41;91.08;150918.22;5023554;28;20738;-56
2023/09/13 01:20:42;;;;;;;4.30;3.87;;;;;;;19.48;91.59;150934.47;5026967;28;20263;-57
2023/09/13 01:23:33;;;;;;;8.47;4.03;;;;;;;19.58;90.21;150958.28;5029225;28;20226;-56
2023/09/13 01:26:35;;;;;;;7.27;3.33;;;;;;;19.66;89.24;150977.06;5023332;28;20267;-57
2023/09/13 01:29:05;;;;;;;6.07;3.40;;;;;;;19.75;87.65;151000.84;4979418;28;20231;-56
2023/09/13 01:31:32;;;;;;;5.28;3.63;;;;;;;19.72;87.76;150993.31;4983435;28;20452;-55
2023/09/13 01:33:58;;;;;;;5.60;3.67;;;;;;;19.68;88.15;150983.28;4989788;28;20223;-55
2023/09/13 01:36:25;;;;;;;4.97;3.57;;;;;;;19.65;89.31;150975.78;5027074;28;20231;-55
2023/09/13 01:38:52;;;;;;;4.10;3.23;;;;;;;19.65;89.83;150974.56;5026009;28;20244;-55
2023/09/13 01:41:23;;;;;;;4.43;3.47;;;;;;;19.60;89.75;150963.31;5022033;28;20238;-55
2023/09/13 01:43:54;;;;;;;4.67;3.27;;;;;;;19.54;89.66;150949.50;5024856;28;20590;-54
2023/09/13 01:46:27;;;;;;;5.40;3.23;;;;;;;19.53;90.11;150945.78;5024143;28;20243;-55
2023/09/13 01:48:55;;;;;;;5.90;3.37;;;;;;;19.51;90.53;150942.00;5025656;28;20231;-58
2023/09/13 01:51:22;;;;;;;4.90;3.40;;;;;;;19.55;90.85;150950.78;5045477;28;20748;-54
2023/09/13 01:53:49;;;;;;;6.83;3.23;;;;;;;19.59;90.26;150962.03;5030184;28;20219;-55
2023/09/13 01:56:16;;;;;;;5.27;3.40;;;;;;;19.63;90.45;150970.78;5026829;28;20244;-55
2023/09/13 01:58:43;;;;;;;5.23;3.40;;;;;;;19.64;90.08;150972.06;5025210;28;20272;-55
2023/09/13 02:01:11;;;;;;;5.67;3.77;;;;;;;19.70;90.50;150988.31;5022164;28;20232;-53
2023/09/13 02:03:38;;;;;;;4.93;3.37;;;;;;;19.73;90.08;150995.81;5024146;28;20238;-54
2023/09/13 02:06:05;;;;;;;5.63;3.70;;;;;;;19.76;89.87;151003.34;5024275;28;20233;-55
2023/09/13 02:08:32;;;;;;;5.03;3.43;;;;;;;19.81;89.93;151013.38;5026609;28;20236;-55
2023/09/13 02:10:58;;;;;;;7.23;3.47;;;;;;;19.82;89.63;151017.13;5024888;28;20230;-55
2023/09/13 02:13:26;;;;;;;4.73;3.60;;;;;;;19.82;89.76;151017.13;5045563;28;20234;-56
2023/09/13 02:15:52;;;;;;;4.90;4.17;;;;;;;19.83;90.02;151019.66;5039754;28;20245;-56
2023/09/13 02:18:19;;;;;;;3.90;3.20;;;;;;;19.82;89.45;151015.88;5035306;28;20246;-55
2023/09/13 02:20:47;;;;;;;5.13;3.37;;;;;;;19.83;89.57;151019.66;5026453;28;20578;-55
2023/09/13 02:23:13;;;;;;;3.90;3.50;;;;;;;19.81;90.37;151013.38;5021650;28;20252;-53
2023/09/13 02:25:44;;;;;;;7.23;4.03;;;;;;;19.83;90.73;151019.66;5025715;28;20241;-55
2023/09/13 02:28:11;;;;;;;5.73;3.70;;;;;;;19.87;91.16;151028.41;5014585;28;20242;-56
2023/09/13 02:30:38;;;;;;;5.57;3.73;;;;;;;19.91;90.96;151039.75;5030312;28;20243;-56
2023/09/13 02:33:05;;;;;;;6.83;4.40;;;;;;;19.91;90.90;151038.47;5031552;28;20228;-56
2023/09/13 02:35:32;;;;;;;7.70;4.17;;;;;;;19.88;90.94;151032.16;5051675;28;20233;-56
2023/09/13 02:38:00;;;;;;;5.93;3.83;;;;;;;19.84;91.34;151022.16;5032196;28;20222;-55
2023/09/13 02:40:27;;;;;;;6.13;4.17;;;;;;;19.82;91.64;151017.13;5025232;28;20703;-56
2023/09/13 02:42:54;;;;;;;6.40;4.03;;;;;;;19.79;91.12;151009.63;5022012;28;20220;-56
2023/09/13 02:45:20;;;;;;;7.03;4.10;;;;;;;19.78;91.30;151007.13;5024994;28;20248;-54
2023/09/13 02:47:47;;;;;;;6.27;4.00;;;;;;;19.76;91.98;151003.34;5053686;28;20221;-55
2023/09/13 02:50:14;;;;;;;6.87;4.00;;;;;;;19.76;91.96;151002.09;5041866;28;20639;-55
2023/09/13 02:52:41;;;;;;;7.07;4.33;;;;;;;19.75;91.70;150999.59;5047822;28;20236;-55
2023/09/13 02:55:09;;;;;;;5.60;4.30;;;;;;;19.74;92.50;150997.09;5031268;28;20227;-55
2023/09/13 02:57:36;;;;;;;9.73;4.83;;;;;;;19.74;92.08;150998.31;5037976;28;20237;-55
2023/09/13 03:00:05;;;;;;;4.07;3.67;;;;;;;19.75;92.27;151000.84;5021033;28;20262;-55
2023/09/13 03:02:34;;;;;;;6.03;3.83;;;;;;;19.78;92.84;151007.13;5024219;28;20241;-54
2023/09/13 03:05:01;;;;;;;9.03;4.33;;;;;;;19.72;92.38;150993.31;5024348;28;20237;-55
2023/09/13 03:07:27;;;;;;;4.43;4.03;;;;;;;19.72;92.40;150992.09;5027043;28;20234;-55
2023/09/13 03:09:57;;;;;;;5.40;4.30;;;;;;;19.70;92.44;150987.06;5036276;28;20328;-55
2023/09/13 03:12:25;;;;;;;5.90;4.00;;;;;;;19.69;92.91;150984.56;5029829;28;20244;-55
2023/09/13 03:14:52;;;;;;;6.33;4.33;;;;;;;19.68;93.11;150983.28;5033040;28;20238;-55
2023/09/13 03:17:18;;;;;;;5.80;4.47;;;;;;;19.69;94.05;150984.56;5025275;28;20245;-58
2023/09/13 03:19:45;;;;;;;6.87;4.50;;;;;;;19.69;93.52;150984.56;5028312;28;20224;-55
2023/09/13 03:22:12;;;;;;;5.60;4.27;;;;;;;19.67;94.92;150980.78;5023861;28;20230;-55
2023/09/13 03:24:38;;;;;;;5.60;4.33;;;;;;;19.67;95.02;150979.56;5026441;28;20250;-54
2023/09/13 03:27:05;;;;;;;5.03;4.00;;;;;;;19.65;94.65;150974.56;5024308;28;20236;-55
2023/09/13 03:29:33;;;;;;;6.83;4.43;;;;;;;19.61;95.62;150967.03;5027164;28;20231;-57
2023/09/13 03:32:02;;;;;;;7.27;4.70;;;;;;;19.60;95.86;150964.53;5194444;22;20221;-55
2023/09/13 03:34:28;;;;;;;8.07;4.70;;;;;;;19.63;95.75;150970.78;4967080;28;20711;-55
2023/09/13 03:36:55;;;;;;;5.73;4.70;;;;;;;19.60;95.66;150964.53;4956653;28;20227;-55
2023/09/13 03:39:25;;;;;;;6.80;5.07;;;;;;;19.69;94.35;150985.81;4968500;28;20681;-55
2023/09/13 03:41:52;;;;;;;8.13;4.90;;;;;;;19.56;95.38;150954.50;4968163;28;20237;-55
2023/09/13 03:44:24;;;;;;;11.97;4.63;;;;;;;19.50;97.02;150938.25;4949102;28;20237;-54
2023/09/13 03:46:52;;;;;;;7.33;4.70;;;;;;;19.45;97.61;150926.97;4990300;23;20614;-66
2023/09/13 03:49:25;;;;;;;6.40;4.60;;;;;;;19.46;97.82;150930.75;5019280;28;20229;-65
2023/09/13 03:51:52;;;;;;;7.50;4.90;;;;;;;19.46;97.40;150930.75;5013465;28;20794;-65
2023/09/13 03:54:25;;;;;;;5.67;4.33;;;;;;;19.42;98.63;150920.72;4983814;28;20734;-65
2023/09/13 03:56:52;;;;;;;6.17;4.77;;;;;;;19.40;100.00;150915.72;5002572;28;20226;-65
2023/09/13 03:59:23;;;;;;;6.30;4.93;;;;;;;19.29;100.00;150889.38;4999755;28;20226;-65
2023/09/13 04:01:49;;;;;;;6.70;4.27;;;;;;;19.29;100.00;150888.16;4983272;28;20229;-65
2023/09/13 04:04:18;;;;;;;6.67;4.60;;;;;;;19.25;100.00;150878.16;4984336;28;20822;-65
2023/09/13 04:06:45;;;;;;;5.43;4.60;;;;;;;19.24;100.00;150876.88;4984140;28;20744;-65
2023/09/13 04:09:11;;;;;;;7.07;4.90;;;;;;;19.25;100.00;150878.16;4984272;28;20281;-65
2023/09/13 04:11:38;;;;;;;6.83;4.63;;;;;;;19.27;100.00;150884.38;4981191;28;20462;-65
2023/09/13 04:14:07;;;;;;;6.20;4.63;;;;;;;19.25;100.00;150878.16;4984384;28;20246;-65
2023/09/13 04:16:33;;;;;;;8.33;4.27;;;;;;;19.27;100.00;150884.38;4985524;28;20237;-65
2023/09/13 04:19:00;;;;;;;6.00;4.73;;;;;;;19.29;100.00;150888.16;4999766;28;20229;-65
2023/09/13 04:21:28;;;;;;;7.60;4.90;;;;;;;19.25;100.00;150879.38;5002626;28;20832;-65
2023/09/13 04:23:58;;;;;;;5.00;4.50;;;;;;;19.26;100.00;150880.66;4985008;28;20283;-65
2023/09/13 04:26:25;;;;;;;5.87;4.47;;;;;;;19.25;100.00;150878.16;4987805;28;20638;-65
2023/09/13 04:28:51;;;;;;;5.97;4.60;;;;;;;19.18;100.00;150863.13;4986202;28;20235;-65
2023/09/13 04:31:18;;;;;;;5.50;4.53;;;;;;;19.14;100.00;150853.09;4983304;28;20229;-65
2023/09/13 04:33:50;;;;;;;7.03;4.47;;;;;;;19.13;100.00;150849.31;4983212;28;20331;-65
2023/09/13 04:36:19;;;;;;;8.20;4.93;;;;;;;19.10;100.00;150843.09;4980223;28;21197;-65
2023/09/13 04:38:48;;;;;;;5.30;4.60;;;;;;;19.07;100.00;150834.34;4987208;28;20818;-66
2023/09/13 04:41:16;;;;;;;5.73;5.07;;;;;;;19.09;100.00;150840.59;4977042;28;20677;-66
2023/09/13 04:43:44;;;;;;;6.77;4.40;;;;;;;19.04;100.00;150828.06;4979976;28;20597;-66
2023/09/13 04:46:12;;;;;;;6.27;4.90;;;;;;;19.02;100.00;150823.06;4983783;28;20797;-66
2023/09/13 04:48:38;;;;;;;5.87;4.60;;;;;;;19.01;100.00;150820.53;4982326;28;20235;-66
2023/09/13 04:51:06;;;;;;;7.00;4.63;;;;;;;19.00;100.00;150818.03;4983473;28;20243;-66
2023/09/13 04:53:34;;;;;;;5.17;4.30;;;;;;;19.00;100.00;150819.31;4981823;28;20256;-66
2023/09/13 04:56:03;;;;;;;5.33;4.07;;;;;;;19.01;100.00;150820.53;4983411;28;20300;-66
2023/09/13 04:58:35;;;;;;;6.23;4.70;;;;;;;18.95;100.00;150805.47;4985047;28;20227;-66
2023/09/13 05:01:01;;;;;;;5.30;4.60;;;;;;;18.94;100.00;150804.25;4999332;28;20238;-66
2023/09/13 05:03:28;;;;;;;5.00;4.37;;;;;;;18.95;100.00;150805.47;4987693;28;20321;-66
2023/09/13 05:05:55;;;;;;;6.47;5.00;;;;;;;18.86;100.00;150785.44;4984678;28;20241;-66
2023/09/13 05:08:22;;;;;;;5.20;4.70;;;;;;;18.86;100.00;150784.22;4988761;28;20655;-66
2023/09/13 05:10:51;;;;;;;5.20;4.70;;;;;;;18.88;100.00;150790.44;4987522;28;20237;-66
2023/09/13 05:13:19;;;;;;;7.07;5.07;;;;;;;18.88;100.00;150790.44;5000290;28;20688;-66
2023/09/13 05:15:46;;;;;;;5.83;4.53;;;;;;;18.92;100.00;150799.25;4988787;28;20238;-66
2023/09/13 05:18:12;;;;;;;7.37;4.93;;;;;;;18.95;100.00;150805.47;4984479;28;20247;-66
2023/09/13 05:20:39;;;;;;;7.07;5.30;;;;;;;18.98;100.00;150813.03;4986132;28;20716;-66
2023/09/13 05:23:06;;;;;;;6.80;5.23;;;;;;;18.98;100.00;150813.03;4984135;28;20233;-66
2023/09/13 05:25:33;;;;;;;6.77;5.47;;;;;;;18.98;100.00;150814.31;4986792;28;20222;-66
2023/09/13 05:28:00;;;;;;;7.03;5.10;;;;;;;18.99;100.00;150816.81;4983087;28;20235;-66
2023/09/13 05:30:31;;;;;;;6.65;5.32;;;;;;;18.99;100.00;150815.53;4987016;28;20499;-66
2023/09/13 05:32:58;;;;;;;6.97;5.27;;;;;;;19.01;100.00;150821.81;4985268;28;20332;-66
2023/09/13 05:35:24;;;;;;;8.33;4.87;;;;;;;18.99;100.00;150816.81;4986551;28;20241;-66
2023/09/13 05:37:51;;;;;;;6.23;5.03;;;;;;;18.98;100.00;150814.31;4986772;28;20234;-66
2023/09/13 05:40:17;;;;;;;5.30;4.60;;;;;;;19.01;100.00;150821.81;4984930;28;20230;-66
2023/09/13 05:42:44;;;;;;;6.00;5.23;;;;;;;18.98;100.00;150814.31;4987071;28;20236;-66
2023/09/13 05:45:11;;;;;;;9.47;6.13;;;;;;;18.97;100.00;150810.53;4983973;28;20242;-66
2023/09/13 05:47:38;;;;;;;8.00;5.43;;;;;;;19.00;100.00;150818.03;4986346;28;20227;-66
2023/09/13 05:50:06;;;;;;;6.57;5.40;;;;;;;19.01;100.00;150821.81;4987396;28;20235;-66
2023/09/13 05:52:33;;;;;;;6.63;5.23;;;;;;;19.02;100.00;150824.31;4986366;28;20714;-66
2023/09/13 05:54:59;;;;;;;7.60;6.07;;;;;;;19.06;100.00;150831.84;4983539;28;20233;-66
2023/09/13 05:57:27;;;;;;;6.57;5.10;;;;;;;19.11;100.00;150845.59;4986133;28;20236;-66
2023/09/13 05:59:54;;;;;;;7.37;5.20;;;;;;;19.17;100.00;150859.34;4985624;28;20223;-66
2023/09/13 06:02:21;;;;;;;6.20;5.27;;;;;;;19.17;100.00;150859.34;4988092;28;20229;-66
2023/09/13 06:04:48;;;;;;;6.50;5.20;;;;;;;19.17;100.00;150859.34;4986711;28;20695;-66
2023/09/13 06:07:15;;;;;;;5.80;4.93;;;;;;;19.18;100.00;150863.13;4983948;28;20239;-66
2023/09/13 06:09:42;;;;;;;5.13;4.60;;;;;;;19.24;100.00;150875.63;4980627;28;20319;-66
2023/09/13 06:12:08;;;;;;;7.47;5.60;;;;;;;19.26;100.00;150880.66;4983572;28;20243;-66
2023/09/13 06:14:35;;;;;;;6.27;5.30;;;;;;;19.30;100.00;150891.91;4986092;28;20236;-66
2023/09/13 06:17:02;;;;;;;7.37;5.50;;;;;;;19.35;100.00;150901.91;4983357;28;20626;-66
2023/09/13 06:19:28;;;;;;;6.23;5.23;;;;;;;19.35;100.00;150903.19;4983977;28;20233;-66
2023/09/13 06:21:56;;;;;;;6.70;5.63;;;;;;;19.36;100.00;150904.41;4984238;28;20243;-66
2023/09/13 06:24:24;;;;;;;5.07;4.33;;;;;;;19.35;100.00;150901.91;4986047;28;20307;-66
2023/09/13 06:26:50;;;;;;;6.07;4.60;;;;;;;19.36;100.00;150905.69;4985464;28;20557;-66
2023/09/13 06:29:21;;;;;;;7.37;5.17;;;;;;;19.33;100.00;150899.41;4985036;28;20240;-66
2023/09/13 06:31:48;;;;;;;7.87;4.97;;;;;;;19.34;100.00;150900.69;4986151;28;20223;-66
2023/09/13 06:34:14;;;;;;;8.17;5.17;;;;;;;19.37;100.00;150906.94;4988097;28;20956;-66
2023/09/13 06:36:41;;;;;;;7.23;5.27;;;;;;;19.33;100.00;150898.19;4986762;28;20239;-66
2023/09/13 06:39:09;;;;;;;6.00;4.50;;;;;;;19.35;100.00;150903.19;4981859;28;20273;-66
2023/09/13 06:41:35;;;;;;;6.43;5.00;;;;;;;19.35;100.00;150901.91;4984455;28;20236;-66
2023/09/13 06:44:03;;;;;;;6.73;5.17;;;;;;;19.34;100.00;150900.69;4981018;28;20230;-66
2023/09/13 06:46:30;;;;;;;8.17;5.00;;;;;;;19.35;100.00;150901.91;4982956;28;20247;-66
2023/09/13 06:48:57;;;;;;;8.17;6.00;;;;;;;19.41;100.00;150916.94;4981836;28;20226;-66
2023/09/13 06:51:23;;;;;;;8.30;5.80;;;;;;;19.35;100.00;150901.91;4983455;28;20235;-66
2023/09/13 06:53:50;;;;;;;7.83;5.30;;;;;;;19.34;100.00;150900.69;4984774;28;20231;-67
2023/09/13 06:56:18;;;;;;;5.43;4.63;;;;;;;19.36;100.00;150904.41;4982257;28;20330;-64
2023/09/13 06:58:44;;;;;;;6.27;4.40;;;;;;;19.46;100.00;150930.75;4984356;28;20229;-66
2023/09/13 07:01:11;;;;;;;6.63;5.17;;;;;;;19.46;100.00;150930.75;4981596;28;20227;-65
2023/09/13 07:03:38;;;;;;;6.43;4.40;;;;;;;19.48;100.00;150934.47;4983449;28;20235;-65
2023/09/13 07:06:05;;;;;;;8.90;5.87;;;;;;;19.50;100.00;150939.47;4982600;28;20232;-65
2023/09/13 07:08:32;;;;;;;6.60;5.73;;;;;;;19.52;100.00;150944.50;4983582;28;20321;-65
2023/09/13 07:11:00;;;;;;;7.23;6.43;;;;;;;19.52;100.00;150943.28;4985751;28;20233;-65
2023/09/13 07:13:28;;;;;;;8.50;6.30;;;;;;;19.47;100.00;150933.25;4985742;28;20679;-65
2023/09/13 07:15:55;;;;;;;9.43;6.17;;;;;;;19.43;100.00;150921.94;4982072;28;20216;-65
2023/09/13 07:18:23;;;;;;;8.17;5.50;;;;;;;19.48;100.00;150934.47;4985935;28;20903;-65
2023/09/13 07:20:49;;;;;;;8.57;6.57;;;;;;;19.50;100.00;150938.25;4983234;28;20232;-65
2023/09/13 07:23:16;;;;;;;8.23;6.73;;;;;;;19.47;100.00;150933.25;4982012;28;20231;-65
2023/09/13 07:25:43;;;;;;;10.10;6.57;;;;;;;19.50;100.00;150939.47;4985591;28;20251;-66
2023/09/13 07:28:10;;;;;;;8.90;6.80;;;;;;;19.56;100.00;150954.50;4982452;28;20315;-65
2023/09/13 07:30:38;;;;;;;11.30;7.43;;;;;;;19.69;100.00;150984.56;4985313;28;20227;-65
2023/09/13 07:33:05;;;;;;;9.47;6.43;;;;;;;19.78;100.00;151007.13;4981291;28;20231;-65
2023/09/13 07:35:34;;;;;;;8.57;6.60;;;;;;;19.82;100.00;151017.13;4985215;28;20230;-65
2023/09/13 07:38:01;;;;;;;11.63;5.93;;;;;;;19.98;100.00;151054.78;4983425;28;20231;-65
2023/09/13 07:40:28;;;;;;;9.40;6.80;;;;;;;20.10;100.00;151083.56;4985182;28;20618;-65
2023/09/13 07:42:54;;;;;;;8.63;6.67;;;;;;;20.14;100.00;151093.59;4983348;28;20239;-65
2023/09/13 07:45:21;;;;;;;17.03;7.00;;;;;;;20.22;100.00;151113.63;4987822;28;20257;-66
2023/09/13 07:47:50;;;;;;;6.90;5.73;;;;;;;20.26;100.00;151122.38;4984318;28;20232;-66
2023/09/13 07:50:29;;;;;;;9.53;6.50;;;;;;;20.30;100.00;151132.41;4984284;28;20237;-66
2023/09/13 07:52:56;;;;;;;6.70;5.97;;;;;;;20.35;100.00;151144.94;4986012;28;20293;-65
2023/09/13 07:55:23;;;;;;;6.90;5.33;;;;;;;20.45;100.00;151170.00;4989129;28;20930;-66
2023/09/13 07:57:50;;;;;;;9.07;6.70;;;;;;;20.52;99.99;151186.31;4988622;28;20223;-66
2023/09/13 08:00:17;;;;;;;10.17;6.20;;;;;;;20.67;100.00;151221.38;4985522;28;20222;-66
2023/09/13 08:02:44;;;;;;;8.07;6.30;;;;;;;20.85;100.00;151266.50;4987326;28;21145;-66
2023/09/13 08:05:12;;;;;;;11.60;6.83;;;;;;;21.04;98.31;151312.91;4985083;28;20321;-66
2023/09/13 08:07:39;;;;;;;10.03;6.90;;;;;;;20.90;95.81;151277.81;4988097;28;20254;-66
2023/09/13 08:10:06;;;;;;;9.93;7.23;;;;;;;20.93;95.97;151285.34;4984451;28;20734;-66
2023/09/13 08:12:33;;;;;;;10.07;6.77;;;;;;;20.76;96.20;151243.91;4988420;28;20238;-65
2023/09/13 08:14:59;;;;;;;8.60;6.63;;;;;;;20.67;96.68;151222.63;4985897;28;20237;-65
2023/09/13 08:17:26;;;;;;;10.47;6.93;;;;;;;20.46;97.78;151171.25;4986932;28;20230;-65
2023/09/13 08:19:53;;;;;;;9.53;7.37;;;;;;;20.30;99.20;151133.69;4990343;28;20231;-65
2023/09/13 08:22:25;;;;;;;9.10;7.00;;;;;;;20.38;97.92;151152.44;4983639;28;20702;-65
2023/09/13 08:24:52;;;;;;;7.30;6.27;;;;;;;20.32;98.11;151137.41;4986827;28;20218;-65
2023/09/13 08:27:18;;;;;;;9.10;6.87;;;;;;;20.19;99.11;151106.09;4987586;28;20233;-65
2023/09/13 08:29:45;;;;;;;9.40;6.20;;;;;;;20.13;100.00;151091.06;4991804;28;20314;-65
2023/09/13 08:32:11;;;;;;;11.13;6.77;;;;;;;20.06;100.00;151074.81;4982966;28;20229;-65
2023/09/13 08:34:38;;;;;;;8.53;6.60;;;;;;;20.08;100.00;151079.81;4988139;28;20240;-65
2023/09/13 08:37:05;;;;;;;8.40;6.23;;;;;;;20.06;100.00;151074.81;4985031;28;20220;-65
2023/09/13 08:39:33;;;;;;;9.00;7.00;;;;;;;19.96;100.00;151049.75;4988135;28;20569;-66
2023/09/13 08:42:00;;;;;;;7.90;6.37;;;;;;;19.94;100.00;151045.97;4986218;28;20555;-66
2023/09/13 08:44:28;;;;;;;8.83;6.73;;;;;;;19.95;100.00;151047.25;4987118;28;20240;-66
2023/09/13 08:46:59;;;;;;;10.83;8.00;;;;;;;19.98;100.00;151056.00;4982414;28;20237;-66
2023/09/13 08:49:27;;;;;;;9.93;7.00;;;;;;;20.13;100.00;151092.34;4987151;28;20231;-66
2023/09/13 08:51:54;;;;;;;11.00;8.17;;;;;;;20.21;100.00;151111.13;4986161;28;20264;-66
2023/09/13 08:54:24;;;;;;;8.50;7.17;;;;;;;20.39;99.93;151154.94;4988447;28;20236;-66
2023/09/13 08:56:54;;;;;;;7.63;6.10;;;;;;;20.75;98.85;151241.41;4988299;28;20225;-66
2023/09/13 08:59:23;;;;;;;9.93;6.90;;;;;;;21.19;96.82;151348.00;4980026;28;20249;-66
2023/09/13 09:01:51;;;;;;;10.47;6.97;;;;;;;21.34;91.46;151384.34;4983141;28;20298;-66
2023/09/13 09:04:24;;;;;;;11.93;7.33;;;;;;;21.89;90.09;151518.53;4983393;28;20288;-66
2023/09/13 09:06:52;;;;;;;10.87;6.20;;;;;;;22.16;86.64;151583.75;4988365;28;20696;-66
2023/09/13 09:09:28;;;;;;;9.13;6.30;;;;;;;22.40;84.64;151641.38;4983193;28;20230;-65
2023/09/13 09:11:59;;;;;;;6.87;5.63;;;;;;;22.58;84.38;151685.38;4984257;28;20227;-66
2023/09/13 09:14:31;;;;;;;8.50;5.77;;;;;;;22.90;83.14;151761.88;4985285;28;20231;-65
2023/09/13 09:16:59;;;;;;;7.07;5.60;;;;;;;22.87;83.11;151754.34;4982319;28;20239;-66
2023/09/13 09:19:26;;;;;;;7.17;5.17;;;;;;;23.10;78.39;151812.06;4983776;28;20230;-66
2023/09/13 09:21:52;;;;;;;5.97;5.03;;;;;;;23.04;80.66;151797.00;4986222;28;20324;-66
2023/09/13 09:24:24;;;;;;;7.27;5.73;;;;;;;23.18;79.20;151829.63;4982953;28;20808;-66
2023/09/13 09:26:51;;;;;;;7.57;4.90;;;;;;;23.32;77.41;151864.78;4983289;28;20244;-66
2023/09/13 09:29:39;;;;;;;7.57;4.93;;;;;;;23.34;75.19;151869.78;4980002;28;20250;-66
2023/09/13 09:32:08;;;;;;;5.80;4.87;;;;;;;23.37;76.80;151877.31;4981149;28;20692;-66
2023/09/13 09:34:38;;;;;;;5.80;4.77;;;;;;;23.21;75.85;151838.41;4983411;28;20228;-66
2023/09/13 09:37:07;;;;;;;6.50;5.20;;;;;;;23.28;77.92;151856.00;4984375;28;20227;-66
2023/09/13 09:39:37;;;;;;;7.17;5.33;;;;;;;23.34;75.31;151869.78;4986019;28;20330;-66
2023/09/13 09:42:05;;;;;;;5.53;4.70;;;;;;;23.39;77.36;151882.34;4983690;28;20733;-66
2023/09/13 09:44:33;;;;;;;7.83;4.43;;;;;;;23.50;74.99;151908.72;4984455;28;20318;-66
2023/09/13 09:47:00;;;;;;;4.93;3.73;;;;;;;23.57;71.12;151926.31;4981240;28;20237;-66
2023/09/13 09:49:26;;;;;;;6.63;4.40;;;;;;;23.27;72.64;151853.50;4986018;28;20265;-66
2023/09/13 09:51:54;;;;;;;6.43;4.47;;;;;;;23.38;74.55;151879.84;4986942;28;20236;-66
2023/09/13 09:54:24;;;;;;;5.37;3.97;;;;;;;23.56;72.63;151923.78;4983157;28;20238;-66
2023/09/13 09:56:52;;;;;;;6.57;4.10;;;;;;;23.10;73.31;151810.78;4983819;28;20902;-66
2023/09/13 09:59:28;;;;;;;4.43;3.60;;;;;;;22.97;73.14;151780.69;4982806;28;20243;-66
2023/09/13 10:01:59;;;;;;;5.07;3.93;;;;;;;23.12;71.72;151815.81;4982242;28;20228;-66
2023/09/13 10:04:27;;;;;;;5.57;4.17;;;;;;;23.06;72.00;151802.03;4984147;28;20236;-66
2023/09/13 10:06:59;;;;;;;4.23;3.60;;;;;;;23.06;73.45;151802.03;4982817;28;20230;-66
2023/09/13 10:09:37;;;;;;;5.27;4.00;;;;;;;23.14;74.27;151820.81;4986680;28;20635;-66
2023/09/13 10:12:04;;;;;;;5.13;4.17;;;;;;;23.43;73.94;151891.16;4983917;28;20723;-66
2023/09/13 10:14:32;;;;;;;5.80;3.37;;;;;;;23.38;72.87;151879.84;4986658;28;20234;-66
2023/09/13 10:17:00;;;;;;;4.50;3.27;;;;;;;23.19;72.74;151832.16;4982954;28;20591;-66
2023/09/13 10:19:29;;;;;;;5.47;3.37;;;;;;;23.17;71.50;151828.34;4987021;28;20238;-66
2023/09/13 10:21:57;;;;;;;6.17;3.27;;;;;;;23.13;72.65;151819.59;4984866;28;20228;-66
2023/09/13 10:24:25;;;;;;;4.43;3.60;;;;;;;23.22;72.07;151840.91;4986936;28;20253;-66
2023/09/13 10:26:52;;;;;;;4.93;3.47;;;;;;;23.45;70.98;151896.19;4985170;28;20241;-66
2023/09/13 10:29:31;;;;;;;6.13;4.00;;;;;;;23.30;72.26;151859.81;4983378;28;20706;-66
2023/09/13 10:32:03;;;;;;;4.57;3.60;;;;;;;23.45;70.53;151896.19;4985986;28;20255;-66
2023/09/13 10:34:34;;;;;;;3.97;3.43;;;;;;;23.31;71.37;151861.03;4986093;28;20254;-66
2023/09/13 10:37:09;;;;;;;9.10;3.90;;;;;;;23.31;72.25;151862.31;4982073;28;20233;-66
2023/09/13 10:39:43;;;;;;;4.17;3.00;;;;;;;23.18;71.80;151829.63;4984872;28;20230;-66
2023/09/13 10:42:11;;;;;;;4.00;3.37;;;;;;;23.00;71.70;151786.97;4982179;28;20227;-66
2023/09/13 10:44:39;;;;;;;5.70;3.10;;;;;;;22.89;73.63;151759.38;4984114;28;20233;-66
2023/09/13 10:47:08;;;;;;;3.87;3.47;;;;;;;22.99;71.99;151785.69;4981639;28;20222;-66
2023/09/13 10:49:37;;;;;;;3.27;2.97;;;;;;;23.02;72.61;151792.00;4984847;28;20248;-66
2023/09/13 10:52:28;;;;;;;3.57;3.03;;;;;;;23.21;72.28;151837.16;4983066;28;20237;-66
2023/09/13 10:54:57;;;;;;;5.83;3.13;;;;;;;23.56;71.17;151923.78;4958356;28;20219;-66
2023/09/13 10:57:27;;;;;;;3.57;3.13;;;;;;;23.60;69.08;151932.56;4981946;28;20231;-66
2023/09/13 10:59:54;;;;;;;6.20;3.57;;;;;;;23.64;70.83;151942.59;4979696;28;20225;-66
2023/09/13 11:02:23;;;;;;;4.20;3.50;;;;;;;23.61;71.43;151935.06;4983959;28;20720;-66
2023/09/13 11:04:51;;;;;;;3.83;3.43;;;;;;;23.89;68.99;152004.06;4984969;28;20236;-66
2023/09/13 11:07:24;;;;;;;4.73;3.50;;;;;;;24.28;68.36;152097.03;4984542;28;20240;-66
2023/09/13 11:09:52;;;;;;;5.37;3.57;;;;;;;24.42;65.90;152130.91;4984531;28;20569;-66
2023/09/13 11:12:19;;;;;;;5.63;3.60;;;;;;;24.45;65.47;152138.44;4979826;28;20241;-66
2023/09/13 11:14:51;;;;;;;4.67;3.50;;;;;;;24.64;64.49;152183.66;4972902;28;20235;-66
2023/09/13 11:17:40;;;;;;;6.17;3.77;;;;;;;24.60;65.78;152176.13;4980522;28;20227;-67
2023/09/13 11:20:24;;;;;;;7.03;3.43;;;;;;;24.70;65.51;152198.72;4982514;28;20260;-67
2023/09/13 11:23:08;;;;;;;4.30;3.77;;;;;;;25.10;66.05;152295.47;4984466;28;20333;-67
2023/09/13 11:25:37;;;;;;;4.40;3.10;;;;;;;25.35;62.36;152357.03;4984436;28;20349;-67
2023/09/13 11:28:08;;;;;;;6.07;3.67;;;;;;;25.17;62.68;152314.31;4986215;28;20285;-67